sensor_id;sensor_type;location;lat;lon;timestamp;temperature;humidity
22607;DHT22;11470;20.968;105.834;2024-03-29T00:02:14;24.00;99.90
22607;DHT22;11470;20.968;105.834;2024-03-29T00:07:17;24.10;99.90
22607;DHT22;11470;20.968;105.834;2024-03-29T00:12:21;24.30;99.90
22607;DHT22;11470;20.968;105.834;2024-03-29T00:17:25;24.40;99.90
22607;DHT22;11470;20.968;105.834;2024-03-29T00:22:32;24.50;99.90
22607;DHT22;11470;20.968;105.834;2024-03-29T00:27:35;24.50;99.90
22607;DHT22;11470;20.968;105.834;2024-03-29T00:32:39;24.40;99.90
22607;DHT22;11470;20.968;105.834;2024-03-29T00:37:42;24.50;99.90
22607;DHT22;11470;20.968;105.834;2024-03-29T00:42:46;24.40;99.90
22607;DHT22;11470;20.968;105.834;2024-03-29T00:47:49;24.50;99.90
22607;DHT22;11470;20.968;105.834;2024-03-29T00:52:53;24.70;99.90
22607;DHT22;11470;20.968;105.834;2024-03-29T00:57:56;24.90;99.90
22607;DHT22;11470;20.968;105.834;2024-03-29T01:03:00;25.10;99.90
22607;DHT22;11470;20.968;105.834;2024-03-29T01:08:03;25.50;99.90
22607;DHT22;11470;20.968;105.834;2024-03-29T01:13:07;25.60;99.90
22607;DHT22;11470;20.968;105.834;2024-03-29T01:18:11;25.70;99.90
22607;DHT22;11470;20.968;105.834;2024-03-29T01:23:14;26.00;99.90
22607;DHT22;11470;20.968;105.834;2024-03-29T01:28:18;26.30;99.90
22607;DHT22;11470;20.968;105.834;2024-03-29T01:33:21;26.80;99.90
22607;DHT22;11470;20.968;105.834;2024-03-29T01:38:25;27.00;99.90
22607;DHT22;11470;20.968;105.834;2024-03-29T01:43:29;26.70;99.90
22607;DHT22;11470;20.968;105.834;2024-03-29T01:48:32;26.50;99.90
22607;DHT22;11470;20.968;105.834;2024-03-29T01:53:36;26.40;99.90
22607;DHT22;11470;20.968;105.834;2024-03-29T01:58:39;26.40;99.90
22607;DHT22;11470;20.968;105.834;2024-03-29T02:03:43;26.60;99.90
22607;DHT22;11470;20.968;105.834;2024-03-29T02:08:51;27.10;99.90
22607;DHT22;11470;20.968;105.834;2024-03-29T02:13:59;27.00;99.90
22607;DHT22;11470;20.968;105.834;2024-03-29T02:19:02;26.80;99.90
22607;DHT22;11470;20.968;105.834;2024-03-29T02:24:10;27.00;99.90
22607;DHT22;11470;20.968;105.834;2024-03-29T02:29:13;27.40;99.90
22607;DHT22;11470;20.968;105.834;2024-03-29T02:34:17;27.70;99.90
22607;DHT22;11470;20.968;105.834;2024-03-29T02:39:21;28.20;99.90
22607;DHT22;11470;20.968;105.834;2024-03-29T02:44:26;28.60;99.90
22607;DHT22;11470;20.968;105.834;2024-03-29T02:49:29;28.40;99.90
22607;DHT22;11470;20.968;105.834;2024-03-29T02:54:33;28.00;99.90
22607;DHT22;11470;20.968;105.834;2024-03-29T02:59:39;28.30;99.90
22607;DHT22;11470;20.968;105.834;2024-03-29T03:04:42;28.60;99.90
22607;DHT22;11470;20.968;105.834;2024-03-29T03:09:46;28.20;99.90
22607;DHT22;11470;20.968;105.834;2024-03-29T03:15:08;28.40;99.90
22607;DHT22;11470;20.968;105.834;2024-03-29T03:20:11;28.20;99.90
22607;DHT22;11470;20.968;105.834;2024-03-29T03:25:16;27.50;99.90
22607;DHT22;11470;20.968;105.834;2024-03-29T03:30:19;26.90;99.90
22607;DHT22;11470;20.968;105.834;2024-03-29T03:35:23;26.60;99.90
22607;DHT22;11470;20.968;105.834;2024-03-29T03:40:26;27.20;99.90
22607;DHT22;11470;20.968;105.834;2024-03-29T03:45:40;28.50;99.90
22607;DHT22;11470;20.968;105.834;2024-03-29T03:50:44;29.80;99.90
22607;DHT22;11470;20.968;105.834;2024-03-29T03:55:48;30.60;99.90
22607;DHT22;11470;20.968;105.834;2024-03-29T04:00:51;31.40;99.90
22607;DHT22;11470;20.968;105.834;2024-03-29T04:05:55;31.60;99.90
22607;DHT22;11470;20.968;105.834;2024-03-29T04:11:03;31.20;99.90
22607;DHT22;11470;20.968;105.834;2024-03-29T04:16:07;30.80;99.90
22607;DHT22;11470;20.968;105.834;2024-03-29T04:21:11;30.20;99.90
22607;DHT22;11470;20.968;105.834;2024-03-29T04:26:15;29.80;99.90
22607;DHT22;11470;20.968;105.834;2024-03-29T04:31:19;29.30;99.90
22607;DHT22;11470;20.968;105.834;2024-03-29T04:36:22;28.80;99.90
22607;DHT22;11470;20.968;105.834;2024-03-29T04:41:26;29.00;99.90
22607;DHT22;11470;20.968;105.834;2024-03-29T04:46:32;29.20;99.90
22607;DHT22;11470;20.968;105.834;2024-03-29T04:51:36;28.90;99.90
22607;DHT22;11470;20.968;105.834;2024-03-29T04:56:39;28.40;99.90
22607;DHT22;11470;20.968;105.834;2024-03-29T05:01:44;28.00;99.90
22607;DHT22;11470;20.968;105.834;2024-03-29T05:06:49;27.60;99.90
22607;DHT22;11470;20.968;105.834;2024-03-29T05:11:53;27.30;99.90
22607;DHT22;11470;20.968;105.834;2024-03-29T05:16:56;27.20;99.90
22607;DHT22;11470;20.968;105.834;2024-03-29T05:22:00;27.00;99.90
22607;DHT22;11470;20.968;105.834;2024-03-29T05:27:03;26.90;99.90
22607;DHT22;11470;20.968;105.834;2024-03-29T05:32:07;26.80;99.90
22607;DHT22;11470;20.968;105.834;2024-03-29T05:37:11;26.90;99.90
22607;DHT22;11470;20.968;105.834;2024-03-29T05:42:14;27.10;99.90
22607;DHT22;11470;20.968;105.834;2024-03-29T05:47:17;27.30;99.90
22607;DHT22;11470;20.968;105.834;2024-03-29T05:52:21;27.20;99.90
22607;DHT22;11470;20.968;105.834;2024-03-29T05:57:26;27.00;99.90
22607;DHT22;11470;20.968;105.834;2024-03-29T06:02:33;26.70;99.90
22607;DHT22;11470;20.968;105.834;2024-03-29T06:07:37;26.70;99.90
22607;DHT22;11470;20.968;105.834;2024-03-29T06:12:41;26.90;99.90
22607;DHT22;11470;20.968;105.834;2024-03-29T06:17:45;26.70;99.90
22607;DHT22;11470;20.968;105.834;2024-03-29T06:22:49;26.30;99.90
22607;DHT22;11470;20.968;105.834;2024-03-29T06:27:52;26.00;99.90
22607;DHT22;11470;20.968;105.834;2024-03-29T06:32:56;25.70;99.90
22607;DHT22;11470;20.968;105.834;2024-03-29T06:38:01;25.20;99.90
22607;DHT22;11470;20.968;105.834;2024-03-29T06:43:05;25.10;99.90
22607;DHT22;11470;20.968;105.834;2024-03-29T06:48:10;24.90;99.90
22607;DHT22;11470;20.968;105.834;2024-03-29T06:53:13;24.70;99.90
22607;DHT22;11470;20.968;105.834;2024-03-29T06:58:17;24.90;99.90
22607;DHT22;11470;20.968;105.834;2024-03-29T07:03:20;25.60;99.90
22607;DHT22;11470;20.968;105.834;2024-03-29T07:08:24;25.70;99.90
22607;DHT22;11470;20.968;105.834;2024-03-29T07:13:31;25.60;99.90
22607;DHT22;11470;20.968;105.834;2024-03-29T07:18:34;25.60;99.90
22607;DHT22;11470;20.968;105.834;2024-03-29T07:23:39;25.80;99.90
22607;DHT22;11470;20.968;105.834;2024-03-29T07:28:42;25.70;99.90
22607;DHT22;11470;20.968;105.834;2024-03-29T07:33:46;25.40;99.90
22607;DHT22;11470;20.968;105.834;2024-03-29T07:38:50;25.10;99.90
22607;DHT22;11470;20.968;105.834;2024-03-29T07:43:56;24.90;99.90
22607;DHT22;11470;20.968;105.834;2024-03-29T07:49:02;24.80;99.90
22607;DHT22;11470;20.968;105.834;2024-03-29T07:54:06;24.70;99.90
22607;DHT22;11470;20.968;105.834;2024-03-29T07:59:09;24.60;99.90
22607;DHT22;11470;20.968;105.834;2024-03-29T08:04:13;24.60;99.90
22607;DHT22;11470;20.968;105.834;2024-03-29T08:09:16;24.60;99.90
22607;DHT22;11470;20.968;105.834;2024-03-29T08:14:20;24.60;99.90
22607;DHT22;11470;20.968;105.834;2024-03-29T08:19:23;24.60;99.90
22607;DHT22;11470;20.968;105.834;2024-03-29T08:24:30;24.60;99.90
22607;DHT22;11470;20.968;105.834;2024-03-29T08:29:34;24.80;99.90
22607;DHT22;11470;20.968;105.834;2024-03-29T08:34:38;24.70;99.90
22607;DHT22;11470;20.968;105.834;2024-03-29T08:39:42;24.70;99.90
22607;DHT22;11470;20.968;105.834;2024-03-29T08:44:46;25.30;99.90
22607;DHT22;11470;20.968;105.834;2024-03-29T08:49:50;25.70;99.90
22607;DHT22;11470;20.968;105.834;2024-03-29T08:54:53;25.70;99.90
22607;DHT22;11470;20.968;105.834;2024-03-29T08:59:57;25.40;99.90
22607;DHT22;11470;20.968;105.834;2024-03-29T09:05:00;25.20;99.90
22607;DHT22;11470;20.968;105.834;2024-03-29T09:10:05;25.00;99.90
22607;DHT22;11470;20.968;105.834;2024-03-29T09:15:09;24.80;99.90
22607;DHT22;11470;20.968;105.834;2024-03-29T09:20:21;24.80;99.90
22607;DHT22;11470;20.968;105.834;2024-03-29T09:25:25;25.30;99.90
22607;DHT22;11470;20.968;105.834;2024-03-29T09:30:28;25.60;99.90
22607;DHT22;11470;20.968;105.834;2024-03-29T09:35:32;25.80;99.90
22607;DHT22;11470;20.968;105.834;2024-03-29T09:40:35;25.40;99.90
22607;DHT22;11470;20.968;105.834;2024-03-29T09:46:16;25.30;99.90
22607;DHT22;11470;20.968;105.834;2024-03-29T09:51:21;25.10;99.90
22607;DHT22;11470;20.968;105.834;2024-03-29T09:56:26;25.00;99.90
22607;DHT22;11470;20.968;105.834;2024-03-29T10:01:31;25.10;99.90
22607;DHT22;11470;20.968;105.834;2024-03-29T10:06:35;25.10;99.90
22607;DHT22;11470;20.968;105.834;2024-03-29T10:11:40;25.00;99.90
22607;DHT22;11470;20.968;105.834;2024-03-29T10:16:43;24.80;99.90
22607;DHT22;11470;20.968;105.834;2024-03-29T10:21:46;24.70;99.90
22607;DHT22;11470;20.968;105.834;2024-03-29T10:26:50;24.60;99.90
22607;DHT22;11470;20.968;105.834;2024-03-29T10:31:55;24.40;99.90
22607;DHT22;11470;20.968;105.834;2024-03-29T10:37:00;24.40;99.90
22607;DHT22;11470;20.968;105.834;2024-03-29T10:42:04;24.30;99.90
22607;DHT22;11470;20.968;105.834;2024-03-29T10:47:08;24.20;99.90
22607;DHT22;11470;20.968;105.834;2024-03-29T10:52:13;24.00;99.90
22607;DHT22;11470;20.968;105.834;2024-03-29T10:57:28;24.00;99.90
22607;DHT22;11470;20.968;105.834;2024-03-29T11:07:47;23.90;99.90
22607;DHT22;11470;20.968;105.834;2024-03-29T11:18:43;23.90;99.90
22607;DHT22;11470;20.968;105.834;2024-03-29T11:23:52;24.00;99.90
22607;DHT22;11470;20.968;105.834;2024-03-29T11:28:56;23.90;99.90
22607;DHT22;11470;20.968;105.834;2024-03-29T11:34:01;23.70;99.90
22607;DHT22;11470;20.968;105.834;2024-03-29T11:39:05;23.70;99.90
22607;DHT22;11470;20.968;105.834;2024-03-29T11:44:09;23.70;99.90
22607;DHT22;11470;20.968;105.834;2024-03-29T11:49:13;23.90;99.90
22607;DHT22;11470;20.968;105.834;2024-03-29T11:54:17;24.00;99.90
22607;DHT22;11470;20.968;105.834;2024-03-29T11:59:21;23.90;99.90
22607;DHT22;11470;20.968;105.834;2024-03-29T12:04:25;23.70;99.90
22607;DHT22;11470;20.968;105.834;2024-03-29T12:09:30;23.50;99.90
22607;DHT22;11470;20.968;105.834;2024-03-29T12:14:34;23.40;99.90
22607;DHT22;11470;20.968;105.834;2024-03-29T12:19:39;23.30;99.90
22607;DHT22;11470;20.968;105.834;2024-03-29T12:24:45;23.30;99.90
22607;DHT22;11470;20.968;105.834;2024-03-29T12:29:48;23.40;99.90
22607;DHT22;11470;20.968;105.834;2024-03-29T12:34:52;23.50;99.90
22607;DHT22;11470;20.968;105.834;2024-03-29T12:39:56;23.50;99.90
22607;DHT22;11470;20.968;105.834;2024-03-29T12:45:03;23.30;99.90
22607;DHT22;11470;20.968;105.834;2024-03-29T12:50:06;23.30;99.90
22607;DHT22;11470;20.968;105.834;2024-03-29T12:55:12;23.20;99.90
22607;DHT22;11470;20.968;105.834;2024-03-29T13:00:16;23.40;99.90
22607;DHT22;11470;20.968;105.834;2024-03-29T13:05:20;23.40;99.90
22607;DHT22;11470;20.968;105.834;2024-03-29T13:10:24;23.30;99.90
22607;DHT22;11470;20.968;105.834;2024-03-29T13:15:36;23.30;99.90
22607;DHT22;11470;20.968;105.834;2024-03-29T13:20:40;23.30;99.90
22607;DHT22;11470;20.968;105.834;2024-03-29T13:25:46;23.30;99.90
22607;DHT22;11470;20.968;105.834;2024-03-29T13:30:50;23.30;99.90
22607;DHT22;11470;20.968;105.834;2024-03-29T13:35:57;23.40;99.90
22607;DHT22;11470;20.968;105.834;2024-03-29T13:41:01;23.30;99.90
22607;DHT22;11470;20.968;105.834;2024-03-29T13:46:05;23.20;99.90
22607;DHT22;11470;20.968;105.834;2024-03-29T13:51:09;23.20;99.90
22607;DHT22;11470;20.968;105.834;2024-03-29T13:56:16;23.20;99.90
22607;DHT22;11470;20.968;105.834;2024-03-29T14:01:20;23.10;99.90
22607;DHT22;11470;20.968;105.834;2024-03-29T14:06:24;23.20;99.90
22607;DHT22;11470;20.968;105.834;2024-03-29T14:11:27;23.20;99.90
22607;DHT22;11470;20.968;105.834;2024-03-29T14:16:31;23.50;99.90
22607;DHT22;11470;20.968;105.834;2024-03-29T14:21:35;23.50;99.90
22607;DHT22;11470;20.968;105.834;2024-03-29T14:26:38;23.40;99.90
22607;DHT22;11470;20.968;105.834;2024-03-29T14:31:42;23.60;99.90
22607;DHT22;11470;20.968;105.834;2024-03-29T14:36:47;23.70;99.90
22607;DHT22;11470;20.968;105.834;2024-03-29T14:41:52;23.40;99.90
22607;DHT22;11470;20.968;105.834;2024-03-29T14:46:56;23.30;99.90
22607;DHT22;11470;20.968;105.834;2024-03-29T14:52:00;23.20;99.90
22607;DHT22;11470;20.968;105.834;2024-03-29T14:57:03;23.10;99.90
22607;DHT22;11470;20.968;105.834;2024-03-29T15:02:07;23.20;99.90
22607;DHT22;11470;20.968;105.834;2024-03-29T15:07:11;23.20;99.90
22607;DHT22;11470;20.968;105.834;2024-03-29T15:12:14;23.20;99.90
22607;DHT22;11470;20.968;105.834;2024-03-29T15:17:17;23.10;99.90
22607;DHT22;11470;20.968;105.834;2024-03-29T15:22:21;23.20;99.90
22607;DHT22;11470;20.968;105.834;2024-03-29T15:27:24;23.30;99.90
22607;DHT22;11470;20.968;105.834;2024-03-29T15:32:51;23.30;99.90
22607;DHT22;11470;20.968;105.834;2024-03-29T15:37:54;23.30;99.90
22607;DHT22;11470;20.968;105.834;2024-03-29T15:42:58;23.30;99.90
22607;DHT22;11470;20.968;105.834;2024-03-29T15:48:01;23.40;99.90
22607;DHT22;11470;20.968;105.834;2024-03-29T15:53:06;23.40;99.90
22607;DHT22;11470;20.968;105.834;2024-03-29T15:58:13;23.50;99.90
22607;DHT22;11470;20.968;105.834;2024-03-29T16:03:16;23.50;99.90
22607;DHT22;11470;20.968;105.834;2024-03-29T16:08:20;23.50;99.90
22607;DHT22;11470;20.968;105.834;2024-03-29T16:13:26;23.40;99.90
22607;DHT22;11470;20.968;105.834;2024-03-29T16:18:31;23.30;99.90
22607;DHT22;11470;20.968;105.834;2024-03-29T16:23:35;23.30;99.90
22607;DHT22;11470;20.968;105.834;2024-03-29T16:28:38;23.30;99.90
22607;DHT22;11470;20.968;105.834;2024-03-29T16:33:42;23.40;99.90
22607;DHT22;11470;20.968;105.834;2024-03-29T16:38:47;23.50;99.90
22607;DHT22;11470;20.968;105.834;2024-03-29T16:43:51;23.50;99.90
22607;DHT22;11470;20.968;105.834;2024-03-29T16:48:56;23.50;99.90
22607;DHT22;11470;20.968;105.834;2024-03-29T16:53:59;23.50;99.90
22607;DHT22;11470;20.968;105.834;2024-03-29T16:59:03;23.50;99.90
22607;DHT22;11470;20.968;105.834;2024-03-29T17:04:09;23.50;99.90
22607;DHT22;11470;20.968;105.834;2024-03-29T17:09:38;23.40;99.90
22607;DHT22;11470;20.968;105.834;2024-03-29T17:14:43;23.30;99.90
22607;DHT22;11470;20.968;105.834;2024-03-29T17:19:46;23.30;99.90
22607;DHT22;11470;20.968;105.834;2024-03-29T17:24:50;23.30;99.90
22607;DHT22;11470;20.968;105.834;2024-03-29T17:29:54;23.30;99.90
22607;DHT22;11470;20.968;105.834;2024-03-29T17:34:57;23.30;99.90
22607;DHT22;11470;20.968;105.834;2024-03-29T17:40:01;23.20;99.90
22607;DHT22;11470;20.968;105.834;2024-03-29T17:45:05;23.20;99.90
22607;DHT22;11470;20.968;105.834;2024-03-29T17:50:10;23.20;99.90
22607;DHT22;11470;20.968;105.834;2024-03-29T17:55:15;23.30;99.90
22607;DHT22;11470;20.968;105.834;2024-03-29T18:00:18;23.30;99.90
22607;DHT22;11470;20.968;105.834;2024-03-29T18:05:22;23.20;99.90
22607;DHT22;11470;20.968;105.834;2024-03-29T18:10:27;23.10;99.90
22607;DHT22;11470;20.968;105.834;2024-03-29T18:15:30;23.20;99.90
22607;DHT22;11470;20.968;105.834;2024-03-29T18:20:42;23.20;99.90
22607;DHT22;11470;20.968;105.834;2024-03-29T18:25:46;23.10;99.90
22607;DHT22;11470;20.968;105.834;2024-03-29T18:30:50;23.20;99.90
22607;DHT22;11470;20.968;105.834;2024-03-29T18:35:53;23.20;99.90
22607;DHT22;11470;20.968;105.834;2024-03-29T18:41:01;23.20;99.90
22607;DHT22;11470;20.968;105.834;2024-03-29T18:46:06;23.10;99.90
22607;DHT22;11470;20.968;105.834;2024-03-29T18:51:28;23.10;99.90
22607;DHT22;11470;20.968;105.834;2024-03-29T18:56:32;23.10;99.90
22607;DHT22;11470;20.968;105.834;2024-03-29T19:01:35;23.00;99.90
22607;DHT22;11470;20.968;105.834;2024-03-29T19:06:38;23.00;99.90
22607;DHT22;11470;20.968;105.834;2024-03-29T19:11:43;23.00;99.90
22607;DHT22;11470;20.968;105.834;2024-03-29T19:16:55;23.10;99.90
22607;DHT22;11470;20.968;105.834;2024-03-29T19:22:02;23.10;99.90
22607;DHT22;11470;20.968;105.834;2024-03-29T19:27:05;23.10;99.90
22607;DHT22;11470;20.968;105.834;2024-03-29T19:32:09;23.10;99.90
22607;DHT22;11470;20.968;105.834;2024-03-29T19:37:12;23.20;99.90
22607;DHT22;11470;20.968;105.834;2024-03-29T19:42:16;23.10;99.90
22607;DHT22;11470;20.968;105.834;2024-03-29T19:47:19;23.00;99.90
22607;DHT22;11470;20.968;105.834;2024-03-29T19:52:26;23.00;99.90
22607;DHT22;11470;20.968;105.834;2024-03-29T19:57:29;23.00;99.90
22607;DHT22;11470;20.968;105.834;2024-03-29T20:02:33;22.90;99.90
22607;DHT22;11470;20.968;105.834;2024-03-29T20:07:38;22.80;99.90
22607;DHT22;11470;20.968;105.834;2024-03-29T20:12:42;22.70;99.90
22607;DHT22;11470;20.968;105.834;2024-03-29T20:17:46;22.60;99.90
22607;DHT22;11470;20.968;105.834;2024-03-29T20:22:49;22.70;99.90
22607;DHT22;11470;20.968;105.834;2024-03-29T20:27:54;22.80;99.90
22607;DHT22;11470;20.968;105.834;2024-03-29T20:32:59;22.70;99.90
22607;DHT22;11470;20.968;105.834;2024-03-29T20:38:02;22.70;99.90
22607;DHT22;11470;20.968;105.834;2024-03-29T20:43:06;22.70;99.90
22607;DHT22;11470;20.968;105.834;2024-03-29T20:48:10;22.70;99.90
22607;DHT22;11470;20.968;105.834;2024-03-29T20:53:13;22.90;99.90
22607;DHT22;11470;20.968;105.834;2024-03-29T20:58:17;23.10;99.90
22607;DHT22;11470;20.968;105.834;2024-03-29T21:03:20;23.10;99.90
22607;DHT22;11470;20.968;105.834;2024-03-29T21:08:42;23.20;99.90
22607;DHT22;11470;20.968;105.834;2024-03-29T21:13:45;23.30;99.90
22607;DHT22;11470;20.968;105.834;2024-03-29T21:18:49;23.30;99.90
22607;DHT22;11470;20.968;105.834;2024-03-29T21:23:52;23.30;99.90
22607;DHT22;11470;20.968;105.834;2024-03-29T21:28:56;23.10;99.90
22607;DHT22;11470;20.968;105.834;2024-03-29T21:33:59;23.10;99.90
22607;DHT22;11470;20.968;105.834;2024-03-29T21:39:03;23.00;99.90
22607;DHT22;11470;20.968;105.834;2024-03-29T21:44:06;22.90;99.90
22607;DHT22;11470;20.968;105.834;2024-03-29T21:49:10;22.70;99.90
22607;DHT22;11470;20.968;105.834;2024-03-29T21:54:14;22.60;99.90
22607;DHT22;11470;20.968;105.834;2024-03-29T21:59:18;22.60;99.90
22607;DHT22;11470;20.968;105.834;2024-03-29T22:04:22;22.60;99.90
22607;DHT22;11470;20.968;105.834;2024-03-29T22:09:34;22.60;99.90
22607;DHT22;11470;20.968;105.834;2024-03-29T22:14:37;22.50;99.90
22607;DHT22;11470;20.968;105.834;2024-03-29T22:19:41;22.60;99.90
22607;DHT22;11470;20.968;105.834;2024-03-29T22:24:44;22.60;99.90
22607;DHT22;11470;20.968;105.834;2024-03-29T22:29:48;22.60;99.90
22607;DHT22;11470;20.968;105.834;2024-03-29T22:34:52;22.60;99.90
22607;DHT22;11470;20.968;105.834;2024-03-29T22:39:55;22.60;99.90
22607;DHT22;11470;20.968;105.834;2024-03-29T22:44:58;22.60;99.90
22607;DHT22;11470;20.968;105.834;2024-03-29T22:50:03;22.60;99.90
22607;DHT22;11470;20.968;105.834;2024-03-29T22:55:09;22.60;99.90
22607;DHT22;11470;20.968;105.834;2024-03-29T23:00:13;22.70;99.90
22607;DHT22;11470;20.968;105.834;2024-03-29T23:05:18;22.80;99.90
22607;DHT22;11470;20.968;105.834;2024-03-29T23:10:22;22.90;99.90
22607;DHT22;11470;20.968;105.834;2024-03-29T23:15:25;23.00;99.90
22607;DHT22;11470;20.968;105.834;2024-03-29T23:20:29;23.10;99.90
22607;DHT22;11470;20.968;105.834;2024-03-29T23:25:32;23.10;99.90
22607;DHT22;11470;20.968;105.834;2024-03-29T23:30:37;23.20;99.90
22607;DHT22;11470;20.968;105.834;2024-03-29T23:35:50;23.20;99.90
22607;DHT22;11470;20.968;105.834;2024-03-29T23:40:57;23.20;99.90
22607;DHT22;11470;20.968;105.834;2024-03-29T23:46:05;23.30;99.90
22607;DHT22;11470;20.968;105.834;2024-03-29T23:51:09;23.30;99.90
22607;DHT22;11470;20.968;105.834;2024-03-29T23:56:12;23.30;99.90
